sensor_id;sensor_type;location;lat;lon;timestamp;P1;durP1;ratioP1;P2;durP2;ratioP2
36253;SDS011;22291;52.250;21.228;2024-03-06T00:00:17;105.03;;;54.45;;
36253;SDS011;22291;52.250;21.228;2024-03-06T00:02:45;105.92;;;53.65;;
36253;SDS011;22291;52.250;21.228;2024-03-06T00:05:14;104.27;;;55.70;;
36253;SDS011;22291;52.250;21.228;2024-03-06T00:07:40;106.17;;;55.80;;
36253;SDS011;22291;52.250;21.228;2024-03-06T00:10:09;99.32;;;51.88;;
36253;SDS011;22291;52.250;21.228;2024-03-06T00:12:35;100.60;;;53.02;;
36253;SDS011;22291;52.250;21.228;2024-03-06T00:15:01;107.97;;;52.48;;
36253;SDS011;22291;52.250;21.228;2024-03-06T00:17:28;93.45;;;50.98;;
36253;SDS011;22291;52.250;21.228;2024-03-06T00:19:54;98.40;;;52.48;;
36253;SDS011;22291;52.250;21.228;2024-03-06T00:22:21;95.17;;;51.30;;
36253;SDS011;22291;52.250;21.228;2024-03-06T00:24:47;88.00;;;50.95;;
36253;SDS011;22291;52.250;21.228;2024-03-06T00:27:13;82.42;;;47.85;;
36253;SDS011;22291;52.250;21.228;2024-03-06T00:29:40;87.37;;;49.45;;
36253;SDS011;22291;52.250;21.228;2024-03-06T00:32:06;82.00;;;47.67;;
36253;SDS011;22291;52.250;21.228;2024-03-06T00:34:33;85.57;;;48.42;;
36253;SDS011;22291;52.250;21.228;2024-03-06T00:37:00;83.40;;;46.23;;
36253;SDS011;22291;52.250;21.228;2024-03-06T00:39:26;82.30;;;48.65;;
36253;SDS011;22291;52.250;21.228;2024-03-06T00:41:53;86.02;;;47.40;;
36253;SDS011;22291;52.250;21.228;2024-03-06T00:44:20;78.50;;;45.60;;
36253;SDS011;22291;52.250;21.228;2024-03-06T00:46:46;77.97;;;43.78;;
36253;SDS011;22291;52.250;21.228;2024-03-06T00:49:13;78.52;;;44.23;;
36253;SDS011;22291;52.250;21.228;2024-03-06T00:51:40;78.83;;;44.80;;
36253;SDS011;22291;52.250;21.228;2024-03-06T00:54:07;66.50;;;42.00;;
36253;SDS011;22291;52.250;21.228;2024-03-06T00:56:36;69.37;;;41.15;;
36253;SDS011;22291;52.250;21.228;2024-03-06T00:59:05;72.92;;;41.50;;
36253;SDS011;22291;52.250;21.228;2024-03-06T01:01:31;68.75;;;40.35;;
36253;SDS011;22291;52.250;21.228;2024-03-06T01:03:58;68.25;;;40.35;;
36253;SDS011;22291;52.250;21.228;2024-03-06T01:06:25;64.67;;;39.67;;
36253;SDS011;22291;52.250;21.228;2024-03-06T01:08:52;62.62;;;38.53;;
36253;SDS011;22291;52.250;21.228;2024-03-06T01:11:20;60.28;;;37.88;;
36253;SDS011;22291;52.250;21.228;2024-03-06T01:13:47;60.12;;;37.17;;
36253;SDS011;22291;52.250;21.228;2024-03-06T01:16:14;59.38;;;37.28;;
36253;SDS011;22291;52.250;21.228;2024-03-06T01:18:40;56.23;;;35.75;;
36253;SDS011;22291;52.250;21.228;2024-03-06T01:21:10;58.35;;;36.23;;
36253;SDS011;22291;52.250;21.228;2024-03-06T01:23:36;55.63;;;35.75;;
36253;SDS011;22291;52.250;21.228;2024-03-06T01:26:05;58.60;;;34.45;;
36253;SDS011;22291;52.250;21.228;2024-03-06T01:28:32;55.15;;;34.30;;
36253;SDS011;22291;52.250;21.228;2024-03-06T01:30:59;64.62;;;35.50;;
36253;SDS011;22291;52.250;21.228;2024-03-06T01:33:26;50.33;;;34.18;;
36253;SDS011;22291;52.250;21.228;2024-03-06T01:35:55;58.17;;;35.33;;
36253;SDS011;22291;52.250;21.228;2024-03-06T01:38:28;54.45;;;34.20;;
36253;SDS011;22291;52.250;21.228;2024-03-06T01:40:53;53.45;;;32.13;;
36253;SDS011;22291;52.250;21.228;2024-03-06T01:43:20;54.15;;;32.50;;
36253;SDS011;22291;52.250;21.228;2024-03-06T01:45:48;51.85;;;31.87;;
36253;SDS011;22291;52.250;21.228;2024-03-06T01:48:17;49.77;;;33.02;;
36253;SDS011;22291;52.250;21.228;2024-03-06T01:50:44;50.58;;;32.10;;
36253;SDS011;22291;52.250;21.228;2024-03-06T01:53:12;49.85;;;30.92;;
36253;SDS011;22291;52.250;21.228;2024-03-06T01:55:41;50.30;;;30.43;;
36253;SDS011;22291;52.250;21.228;2024-03-06T01:58:10;48.40;;;31.10;;
36253;SDS011;22291;52.250;21.228;2024-03-06T02:00:39;49.97;;;29.77;;
36253;SDS011;22291;52.250;21.228;2024-03-06T02:03:08;53.55;;;30.80;;
36253;SDS011;22291;52.250;21.228;2024-03-06T02:05:40;47.98;;;30.32;;
36253;SDS011;22291;52.250;21.228;2024-03-06T02:08:11;49.30;;;29.25;;
36253;SDS011;22291;52.250;21.228;2024-03-06T02:10:37;45.73;;;29.63;;
36253;SDS011;22291;52.250;21.228;2024-03-06T02:13:05;49.48;;;30.15;;
36253;SDS011;22291;52.250;21.228;2024-03-06T02:15:31;46.08;;;28.30;;
36253;SDS011;22291;52.250;21.228;2024-03-06T02:17:58;48.48;;;29.32;;
36253;SDS011;22291;52.250;21.228;2024-03-06T02:20:27;53.50;;;28.12;;
36253;SDS011;22291;52.250;21.228;2024-03-06T02:22:54;48.08;;;30.00;;
36253;SDS011;22291;52.250;21.228;2024-03-06T02:25:20;44.80;;;29.37;;
36253;SDS011;22291;52.250;21.228;2024-03-06T02:27:46;56.37;;;29.63;;
36253;SDS011;22291;52.250;21.228;2024-03-06T02:30:19;46.53;;;27.32;;
36253;SDS011;22291;52.250;21.228;2024-03-06T02:32:47;42.40;;;27.70;;
36253;SDS011;22291;52.250;21.228;2024-03-06T02:35:14;43.95;;;26.02;;
36253;SDS011;22291;52.250;21.228;2024-03-06T02:37:41;50.28;;;28.85;;
36253;SDS011;22291;52.250;21.228;2024-03-06T02:40:12;43.90;;;27.93;;
36253;SDS011;22291;52.250;21.228;2024-03-06T02:42:39;52.62;;;30.30;;
36253;SDS011;22291;52.250;21.228;2024-03-06T02:45:06;43.45;;;26.42;;
36253;SDS011;22291;52.250;21.228;2024-03-06T02:47:34;49.40;;;28.40;;
36253;SDS011;22291;52.250;21.228;2024-03-06T02:50:01;47.15;;;28.40;;
36253;SDS011;22291;52.250;21.228;2024-03-06T02:52:28;46.25;;;28.55;;
36253;SDS011;22291;52.250;21.228;2024-03-06T02:54:57;50.70;;;28.65;;
36253;SDS011;22291;52.250;21.228;2024-03-06T02:57:27;43.85;;;26.37;;
36253;SDS011;22291;52.250;21.228;2024-03-06T02:59:56;44.23;;;28.35;;
36253;SDS011;22291;52.250;21.228;2024-03-06T03:02:24;41.85;;;27.40;;
36253;SDS011;22291;52.250;21.228;2024-03-06T03:04:53;45.20;;;27.50;;
36253;SDS011;22291;52.250;21.228;2024-03-06T03:07:19;42.25;;;27.10;;
36253;SDS011;22291;52.250;21.228;2024-03-06T03:09:46;51.23;;;28.50;;
36253;SDS011;22291;52.250;21.228;2024-03-06T03:12:13;42.23;;;26.33;;
36253;SDS011;22291;52.250;21.228;2024-03-06T03:14:40;44.45;;;26.57;;
36253;SDS011;22291;52.250;21.228;2024-03-06T03:17:08;46.25;;;27.02;;
36253;SDS011;22291;52.250;21.228;2024-03-06T03:19:36;45.85;;;27.80;;
36253;SDS011;22291;52.250;21.228;2024-03-06T03:22:06;41.10;;;27.90;;
36253;SDS011;22291;52.250;21.228;2024-03-06T03:24:35;42.35;;;27.45;;
36253;SDS011;22291;52.250;21.228;2024-03-06T03:27:03;44.33;;;27.02;;
36253;SDS011;22291;52.250;21.228;2024-03-06T03:29:30;46.80;;;27.80;;
36253;SDS011;22291;52.250;21.228;2024-03-06T03:32:00;41.20;;;25.80;;
36253;SDS011;22291;52.250;21.228;2024-03-06T03:34:27;45.33;;;26.82;;
36253;SDS011;22291;52.250;21.228;2024-03-06T03:37:00;43.17;;;26.37;;
36253;SDS011;22291;52.250;21.228;2024-03-06T03:39:27;41.92;;;26.80;;
36253;SDS011;22291;52.250;21.228;2024-03-06T03:41:54;48.30;;;27.32;;
36253;SDS011;22291;52.250;21.228;2024-03-06T03:44:22;41.88;;;26.95;;
36253;SDS011;22291;52.250;21.228;2024-03-06T03:46:48;42.75;;;27.02;;
36253;SDS011;22291;52.250;21.228;2024-03-06T03:49:15;39.75;;;25.65;;
36253;SDS011;22291;52.250;21.228;2024-03-06T03:51:41;44.45;;;27.10;;
36253;SDS011;22291;52.250;21.228;2024-03-06T03:54:08;42.20;;;25.48;;
36253;SDS011;22291;52.250;21.228;2024-03-06T03:56:34;46.98;;;27.30;;
36253;SDS011;22291;52.250;21.228;2024-03-06T03:59:00;38.45;;;25.55;;
36253;SDS011;22291;52.250;21.228;2024-03-06T04:01:26;42.83;;;26.75;;
36253;SDS011;22291;52.250;21.228;2024-03-06T04:03:52;40.38;;;25.60;;
36253;SDS011;22291;52.250;21.228;2024-03-06T04:06:20;44.30;;;26.40;;
36253;SDS011;22291;52.250;21.228;2024-03-06T04:08:47;46.73;;;26.85;;
36253;SDS011;22291;52.250;21.228;2024-03-06T04:11:15;41.63;;;26.97;;
36253;SDS011;22291;52.250;21.228;2024-03-06T04:13:41;44.30;;;26.10;;
36253;SDS011;22291;52.250;21.228;2024-03-06T04:16:17;40.48;;;25.57;;
36253;SDS011;22291;52.250;21.228;2024-03-06T04:18:44;43.05;;;27.25;;
36253;SDS011;22291;52.250;21.228;2024-03-06T04:21:10;39.83;;;26.33;;
36253;SDS011;22291;52.250;21.228;2024-03-06T04:23:37;43.15;;;27.00;;
36253;SDS011;22291;52.250;21.228;2024-03-06T04:26:03;46.68;;;26.35;;
36253;SDS011;22291;52.250;21.228;2024-03-06T04:28:32;45.63;;;26.85;;
36253;SDS011;22291;52.250;21.228;2024-03-06T04:31:02;42.55;;;26.42;;
36253;SDS011;22291;52.250;21.228;2024-03-06T04:33:32;48.85;;;27.37;;
36253;SDS011;22291;52.250;21.228;2024-03-06T04:36:00;43.70;;;27.80;;
36253;SDS011;22291;52.250;21.228;2024-03-06T04:40:54;41.73;;;26.12;;
36253;SDS011;22291;52.250;21.228;2024-03-06T04:43:20;44.00;;;27.65;;
36253;SDS011;22291;52.250;21.228;2024-03-06T04:45:47;41.92;;;26.57;;
36253;SDS011;22291;52.250;21.228;2024-03-06T04:48:17;47.60;;;27.40;;
36253;SDS011;22291;52.250;21.228;2024-03-06T04:50:47;42.70;;;25.90;;
36253;SDS011;22291;52.250;21.228;2024-03-06T04:53:13;43.92;;;27.15;;
36253;SDS011;22291;52.250;21.228;2024-03-06T04:55:39;44.85;;;26.75;;
36253;SDS011;22291;52.250;21.228;2024-03-06T04:58:05;41.45;;;26.17;;
36253;SDS011;22291;52.250;21.228;2024-03-06T05:00:32;45.43;;;27.55;;
36253;SDS011;22291;52.250;21.228;2024-03-06T05:02:58;43.85;;;26.12;;
36253;SDS011;22291;52.250;21.228;2024-03-06T05:05:24;46.23;;;26.37;;
36253;SDS011;22291;52.250;21.228;2024-03-06T05:07:50;41.80;;;26.12;;
36253;SDS011;22291;52.250;21.228;2024-03-06T05:10:17;40.73;;;24.67;;
36253;SDS011;22291;52.250;21.228;2024-03-06T05:12:43;40.03;;;25.35;;
36253;SDS011;22291;52.250;21.228;2024-03-06T05:15:09;39.85;;;24.50;;
36253;SDS011;22291;52.250;21.228;2024-03-06T05:17:37;46.00;;;25.23;;
36253;SDS011;22291;52.250;21.228;2024-03-06T05:20:03;42.80;;;24.70;;
36253;SDS011;22291;52.250;21.228;2024-03-06T05:22:34;43.05;;;24.27;;
36253;SDS011;22291;52.250;21.228;2024-03-06T05:25:00;44.13;;;24.72;;
36253;SDS011;22291;52.250;21.228;2024-03-06T05:27:27;44.18;;;26.20;;
36253;SDS011;22291;52.250;21.228;2024-03-06T05:29:54;39.27;;;23.25;;
36253;SDS011;22291;52.250;21.228;2024-03-06T05:32:23;42.45;;;24.10;;
36253;SDS011;22291;52.250;21.228;2024-03-06T05:34:50;42.10;;;23.85;;
36253;SDS011;22291;52.250;21.228;2024-03-06T05:37:16;36.53;;;23.60;;
36253;SDS011;22291;52.250;21.228;2024-03-06T05:39:42;39.27;;;24.00;;
36253;SDS011;22291;52.250;21.228;2024-03-06T05:42:09;39.13;;;23.42;;
36253;SDS011;22291;52.250;21.228;2024-03-06T05:44:35;41.50;;;25.40;;
36253;SDS011;22291;52.250;21.228;2024-03-06T05:47:01;38.28;;;23.75;;
36253;SDS011;22291;52.250;21.228;2024-03-06T05:49:30;37.28;;;22.82;;
36253;SDS011;22291;52.250;21.228;2024-03-06T05:51:58;38.70;;;24.05;;
36253;SDS011;22291;52.250;21.228;2024-03-06T05:54:24;39.58;;;23.32;;
36253;SDS011;22291;52.250;21.228;2024-03-06T05:56:50;39.83;;;25.05;;
36253;SDS011;22291;52.250;21.228;2024-03-06T05:59:20;40.25;;;24.15;;
36253;SDS011;22291;52.250;21.228;2024-03-06T06:01:46;40.38;;;23.85;;
36253;SDS011;22291;52.250;21.228;2024-03-06T06:04:13;38.20;;;22.95;;
36253;SDS011;22291;52.250;21.228;2024-03-06T06:06:40;37.42;;;23.25;;
36253;SDS011;22291;52.250;21.228;2024-03-06T06:09:06;36.83;;;22.77;;
36253;SDS011;22291;52.250;21.228;2024-03-06T06:11:33;36.23;;;21.95;;
36253;SDS011;22291;52.250;21.228;2024-03-06T06:14:00;34.58;;;20.88;;
36253;SDS011;22291;52.250;21.228;2024-03-06T06:16:38;35.90;;;21.80;;
36253;SDS011;22291;52.250;21.228;2024-03-06T06:19:06;32.40;;;20.55;;
36253;SDS011;22291;52.250;21.228;2024-03-06T06:21:32;37.20;;;20.40;;
36253;SDS011;22291;52.250;21.228;2024-03-06T06:24:02;32.30;;;19.90;;
36253;SDS011;22291;52.250;21.228;2024-03-06T06:26:34;30.27;;;19.50;;
36253;SDS011;22291;52.250;21.228;2024-03-06T06:29:01;31.85;;;18.52;;
36253;SDS011;22291;52.250;21.228;2024-03-06T06:31:27;31.50;;;18.80;;
36253;SDS011;22291;52.250;21.228;2024-03-06T06:33:53;31.15;;;18.95;;
36253;SDS011;22291;52.250;21.228;2024-03-06T06:36:19;31.57;;;19.40;;
36253;SDS011;22291;52.250;21.228;2024-03-06T06:38:46;31.00;;;18.85;;
36253;SDS011;22291;52.250;21.228;2024-03-06T06:41:16;29.75;;;18.73;;
36253;SDS011;22291;52.250;21.228;2024-03-06T06:43:45;31.37;;;18.25;;
36253;SDS011;22291;52.250;21.228;2024-03-06T06:46:13;29.52;;;18.67;;
36253;SDS011;22291;52.250;21.228;2024-03-06T06:48:41;28.85;;;17.65;;
36253;SDS011;22291;52.250;21.228;2024-03-06T06:51:09;30.70;;;18.12;;
36253;SDS011;22291;52.250;21.228;2024-03-06T06:53:35;32.35;;;18.55;;
36253;SDS011;22291;52.250;21.228;2024-03-06T06:56:01;34.33;;;19.05;;
36253;SDS011;22291;52.250;21.228;2024-03-06T06:58:29;31.42;;;18.75;;
36253;SDS011;22291;52.250;21.228;2024-03-06T07:00:55;35.00;;;18.55;;
36253;SDS011;22291;52.250;21.228;2024-03-06T07:03:21;30.35;;;18.45;;
36253;SDS011;22291;52.250;21.228;2024-03-06T07:05:53;35.60;;;19.37;;
36253;SDS011;22291;52.250;21.228;2024-03-06T07:08:21;33.40;;;18.52;;
36253;SDS011;22291;52.250;21.228;2024-03-06T07:10:49;33.05;;;18.52;;
36253;SDS011;22291;52.250;21.228;2024-03-06T07:13:18;31.10;;;19.00;;
36253;SDS011;22291;52.250;21.228;2024-03-06T07:15:47;27.67;;;16.87;;
36253;SDS011;22291;52.250;21.228;2024-03-06T07:18:15;27.60;;;16.95;;
36253;SDS011;22291;52.250;21.228;2024-03-06T07:20:41;28.52;;;17.10;;
36253;SDS011;22291;52.250;21.228;2024-03-06T07:23:07;26.57;;;14.93;;
36253;SDS011;22291;52.250;21.228;2024-03-06T07:25:33;29.60;;;16.27;;
36253;SDS011;22291;52.250;21.228;2024-03-06T07:28:00;29.75;;;16.73;;
36253;SDS011;22291;52.250;21.228;2024-03-06T07:30:29;31.27;;;16.23;;
36253;SDS011;22291;52.250;21.228;2024-03-06T07:32:57;31.55;;;17.73;;
36253;SDS011;22291;52.250;21.228;2024-03-06T07:35:26;32.10;;;17.67;;
36253;SDS011;22291;52.250;21.228;2024-03-06T07:37:52;29.05;;;17.37;;
36253;SDS011;22291;52.250;21.228;2024-03-06T07:40:18;26.35;;;16.62;;
36253;SDS011;22291;52.250;21.228;2024-03-06T07:42:47;30.68;;;18.65;;
36253;SDS011;22291;52.250;21.228;2024-03-06T07:45:15;32.17;;;19.03;;
36253;SDS011;22291;52.250;21.228;2024-03-06T07:47:44;35.85;;;19.32;;
36253;SDS011;22291;52.250;21.228;2024-03-06T07:50:16;31.05;;;18.75;;
36253;SDS011;22291;52.250;21.228;2024-03-06T07:52:45;33.02;;;19.52;;
36253;SDS011;22291;52.250;21.228;2024-03-06T07:55:14;34.90;;;19.67;;
36253;SDS011;22291;52.250;21.228;2024-03-06T07:57:43;27.07;;;17.85;;
36253;SDS011;22291;52.250;21.228;2024-03-06T08:00:14;29.50;;;18.48;;
36253;SDS011;22291;52.250;21.228;2024-03-06T08:02:47;32.03;;;19.25;;
36253;SDS011;22291;52.250;21.228;2024-03-06T08:05:16;32.38;;;17.95;;
36253;SDS011;22291;52.250;21.228;2024-03-06T08:07:44;33.05;;;18.17;;
36253;SDS011;22291;52.250;21.228;2024-03-06T08:10:13;34.18;;;16.70;;
36253;SDS011;22291;52.250;21.228;2024-03-06T08:12:43;36.45;;;21.07;;
36253;SDS011;22291;52.250;21.228;2024-03-06T08:15:14;30.90;;;17.98;;
36253;SDS011;22291;52.250;21.228;2024-03-06T08:17:41;32.53;;;18.05;;
36253;SDS011;22291;52.250;21.228;2024-03-06T08:20:12;31.48;;;18.05;;
36253;SDS011;22291;52.250;21.228;2024-03-06T08:22:40;33.28;;;19.70;;
36253;SDS011;22291;52.250;21.228;2024-03-06T08:25:08;34.35;;;19.05;;
36253;SDS011;22291;52.250;21.228;2024-03-06T08:27:41;30.80;;;18.30;;
36253;SDS011;22291;52.250;21.228;2024-03-06T08:30:12;29.10;;;18.48;;
36253;SDS011;22291;52.250;21.228;2024-03-06T08:32:38;29.70;;;18.27;;
36253;SDS011;22291;52.250;21.228;2024-03-06T08:35:12;29.75;;;18.60;;
36253;SDS011;22291;52.250;21.228;2024-03-06T08:37:40;26.73;;;18.40;;
36253;SDS011;22291;52.250;21.228;2024-03-06T08:40:13;30.97;;;18.70;;
36253;SDS011;22291;52.250;21.228;2024-03-06T08:42:50;28.80;;;18.00;;
36253;SDS011;22291;52.250;21.228;2024-03-06T08:45:15;32.50;;;18.87;;
36253;SDS011;22291;52.250;21.228;2024-03-06T08:47:47;26.80;;;16.07;;
36253;SDS011;22291;52.250;21.228;2024-03-06T08:50:14;27.90;;;15.88;;
36253;SDS011;22291;52.250;21.228;2024-03-06T08:52:40;28.55;;;16.12;;
36253;SDS011;22291;52.250;21.228;2024-03-06T08:55:12;30.00;;;17.07;;
36253;SDS011;22291;52.250;21.228;2024-03-06T08:57:40;35.08;;;16.97;;
36253;SDS011;22291;52.250;21.228;2024-03-06T09:00:12;28.98;;;15.60;;
36253;SDS011;22291;52.250;21.228;2024-03-06T09:02:41;31.27;;;14.85;;
36253;SDS011;22291;52.250;21.228;2024-03-06T09:05:07;31.37;;;15.78;;
36253;SDS011;22291;52.250;21.228;2024-03-06T09:07:35;26.42;;;15.72;;
36253;SDS011;22291;52.250;21.228;2024-03-06T09:10:08;35.03;;;17.73;;
36253;SDS011;22291;52.250;21.228;2024-03-06T09:12:39;26.95;;;14.73;;
36253;SDS011;22291;52.250;21.228;2024-03-06T09:15:09;34.50;;;16.70;;
36253;SDS011;22291;52.250;21.228;2024-03-06T09:17:37;33.05;;;16.40;;
36253;SDS011;22291;52.250;21.228;2024-03-06T09:20:04;28.90;;;15.63;;
36253;SDS011;22291;52.250;21.228;2024-03-06T09:22:33;32.60;;;17.50;;
36253;SDS011;22291;52.250;21.228;2024-03-06T09:24:59;25.70;;;16.42;;
36253;SDS011;22291;52.250;21.228;2024-03-06T09:27:25;33.75;;;17.73;;
36253;SDS011;22291;52.250;21.228;2024-03-06T09:29:51;28.75;;;16.00;;
36253;SDS011;22291;52.250;21.228;2024-03-06T09:32:17;34.23;;;18.50;;
36253;SDS011;22291;52.250;21.228;2024-03-06T09:34:44;30.92;;;17.90;;
36253;SDS011;22291;52.250;21.228;2024-03-06T09:37:10;29.90;;;16.52;;
36253;SDS011;22291;52.250;21.228;2024-03-06T09:39:36;26.90;;;16.12;;
36253;SDS011;22291;52.250;21.228;2024-03-06T09:42:05;28.57;;;17.00;;
36253;SDS011;22291;52.250;21.228;2024-03-06T09:44:35;33.35;;;16.90;;
36253;SDS011;22291;52.250;21.228;2024-03-06T09:47:02;32.45;;;16.93;;
36253;SDS011;22291;52.250;21.228;2024-03-06T09:49:31;32.93;;;17.35;;
36253;SDS011;22291;52.250;21.228;2024-03-06T09:52:01;32.80;;;17.95;;
36253;SDS011;22291;52.250;21.228;2024-03-06T09:54:29;32.88;;;17.67;;
36253;SDS011;22291;52.250;21.228;2024-03-06T09:56:57;28.92;;;17.02;;
36253;SDS011;22291;52.250;21.228;2024-03-06T09:59:25;33.85;;;15.83;;
36253;SDS011;22291;52.250;21.228;2024-03-06T10:01:56;31.80;;;16.48;;
36253;SDS011;22291;52.250;21.228;2024-03-06T10:04:27;29.55;;;15.85;;
36253;SDS011;22291;52.250;21.228;2024-03-06T10:06:57;36.60;;;17.32;;
36253;SDS011;22291;52.250;21.228;2024-03-06T10:09:28;30.50;;;15.53;;
36253;SDS011;22291;52.250;21.228;2024-03-06T10:11:56;33.42;;;15.88;;
36253;SDS011;22291;52.250;21.228;2024-03-06T10:14:22;34.63;;;15.63;;
36253;SDS011;22291;52.250;21.228;2024-03-06T10:16:59;29.52;;;16.52;;
36253;SDS011;22291;52.250;21.228;2024-03-06T10:19:25;27.27;;;14.60;;
36253;SDS011;22291;52.250;21.228;2024-03-06T10:21:55;27.45;;;14.73;;
36253;SDS011;22291;52.250;21.228;2024-03-06T10:24:23;31.62;;;17.37;;
36253;SDS011;22291;52.250;21.228;2024-03-06T10:26:50;31.95;;;16.40;;
36253;SDS011;22291;52.250;21.228;2024-03-06T10:29:20;26.97;;;15.98;;
36253;SDS011;22291;52.250;21.228;2024-03-06T10:31:53;24.45;;;14.18;;
36253;SDS011;22291;52.250;21.228;2024-03-06T10:34:24;31.60;;;16.50;;
36253;SDS011;22291;52.250;21.228;2024-03-06T10:36:56;27.05;;;14.35;;
36253;SDS011;22291;52.250;21.228;2024-03-06T10:39:27;24.82;;;15.23;;
36253;SDS011;22291;52.250;21.228;2024-03-06T10:41:56;25.27;;;13.72;;
36253;SDS011;22291;52.250;21.228;2024-03-06T10:44:27;22.90;;;13.13;;
36253;SDS011;22291;52.250;21.228;2024-03-06T10:46:55;25.50;;;13.93;;
36253;SDS011;22291;52.250;21.228;2024-03-06T10:49:26;24.27;;;12.28;;
36253;SDS011;22291;52.250;21.228;2024-03-06T10:54:31;21.45;;;12.43;;
36253;SDS011;22291;52.250;21.228;2024-03-06T10:57:02;22.48;;;13.60;;
36253;SDS011;22291;52.250;21.228;2024-03-06T10:59:29;21.12;;;11.85;;
36253;SDS011;22291;52.250;21.228;2024-03-06T11:01:59;24.47;;;12.90;;
36253;SDS011;22291;52.250;21.228;2024-03-06T11:04:28;20.15;;;12.03;;
36253;SDS011;22291;52.250;21.228;2024-03-06T11:06:56;20.60;;;12.10;;
36253;SDS011;22291;52.250;21.228;2024-03-06T11:09:22;21.97;;;12.43;;
36253;SDS011;22291;52.250;21.228;2024-03-06T11:11:53;23.70;;;12.30;;
36253;SDS011;22291;52.250;21.228;2024-03-06T11:14:22;21.50;;;12.45;;
36253;SDS011;22291;52.250;21.228;2024-03-06T11:16:58;21.25;;;11.22;;
36253;SDS011;22291;52.250;21.228;2024-03-06T11:19:26;20.95;;;11.25;;
36253;SDS011;22291;52.250;21.228;2024-03-06T11:21:52;17.50;;;10.60;;
36253;SDS011;22291;52.250;21.228;2024-03-06T11:24:19;13.70;;;9.50;;
36253;SDS011;22291;52.250;21.228;2024-03-06T11:26:50;18.32;;;10.58;;
36253;SDS011;22291;52.250;21.228;2024-03-06T11:29:27;17.70;;;10.05;;
36253;SDS011;22291;52.250;21.228;2024-03-06T11:31:57;17.80;;;10.00;;
36253;SDS011;22291;52.250;21.228;2024-03-06T11:34:36;17.42;;;10.48;;
36253;SDS011;22291;52.250;21.228;2024-03-06T11:37:04;16.75;;;10.45;;
36253;SDS011;22291;52.250;21.228;2024-03-06T11:39:35;17.20;;;10.38;;
36253;SDS011;22291;52.250;21.228;2024-03-06T11:42:06;14.23;;;9.78;;
36253;SDS011;22291;52.250;21.228;2024-03-06T11:44:34;16.57;;;9.70;;
36253;SDS011;22291;52.250;21.228;2024-03-06T11:47:03;18.35;;;9.83;;
36253;SDS011;22291;52.250;21.228;2024-03-06T11:49:33;16.30;;;9.70;;
36253;SDS011;22291;52.250;21.228;2024-03-06T11:52:04;16.77;;;11.30;;
36253;SDS011;22291;52.250;21.228;2024-03-06T11:54:33;25.23;;;14.93;;
36253;SDS011;22291;52.250;21.228;2024-03-06T11:57:00;18.87;;;10.18;;
36253;SDS011;22291;52.250;21.228;2024-03-06T12:04:30;17.50;;;8.95;;
36253;SDS011;22291;52.250;21.228;2024-03-06T12:07:00;13.78;;;7.95;;
36253;SDS011;22291;52.250;21.228;2024-03-06T12:09:29;22.90;;;7.50;;
36253;SDS011;22291;52.250;21.228;2024-03-06T12:11:55;15.60;;;8.08;;
36253;SDS011;22291;52.250;21.228;2024-03-06T12:14:23;14.18;;;7.92;;
36253;SDS011;22291;52.250;21.228;2024-03-06T12:17:00;15.75;;;7.87;;
36253;SDS011;22291;52.250;21.228;2024-03-06T12:19:36;13.38;;;7.42;;
36253;SDS011;22291;52.250;21.228;2024-03-06T12:22:03;13.95;;;8.03;;
36253;SDS011;22291;52.250;21.228;2024-03-06T12:24:30;12.70;;;7.12;;
36253;SDS011;22291;52.250;21.228;2024-03-06T12:27:04;16.12;;;7.65;;
36253;SDS011;22291;52.250;21.228;2024-03-06T12:29:32;13.30;;;8.10;;
36253;SDS011;22291;52.250;21.228;2024-03-06T12:32:15;9.30;;;6.53;;
36253;SDS011;22291;52.250;21.228;2024-03-06T12:34:29;11.10;;;7.35;;
36253;SDS011;22291;52.250;21.228;2024-03-06T12:37:07;14.95;;;7.78;;
36253;SDS011;22291;52.250;21.228;2024-03-06T12:39:38;13.03;;;7.55;;
36253;SDS011;22291;52.250;21.228;2024-03-06T12:42:04;12.10;;;7.50;;
36253;SDS011;22291;52.250;21.228;2024-03-06T12:44:32;15.55;;;9.10;;
36253;SDS011;22291;52.250;21.228;2024-03-06T12:46:58;13.55;;;7.47;;
36253;SDS011;22291;52.250;21.228;2024-03-06T12:49:26;14.53;;;7.72;;
36253;SDS011;22291;52.250;21.228;2024-03-06T12:51:52;11.00;;;7.97;;
36253;SDS011;22291;52.250;21.228;2024-03-06T12:54:19;12.80;;;8.33;;
36253;SDS011;22291;52.250;21.228;2024-03-06T12:56:48;13.72;;;8.90;;
36253;SDS011;22291;52.250;21.228;2024-03-06T12:59:14;14.90;;;8.93;;
36253;SDS011;22291;52.250;21.228;2024-03-06T13:01:40;14.73;;;7.83;;
36253;SDS011;22291;52.250;21.228;2024-03-06T13:04:07;15.90;;;8.68;;
36253;SDS011;22291;52.250;21.228;2024-03-06T13:06:35;11.90;;;7.47;;
36253;SDS011;22291;52.250;21.228;2024-03-06T13:09:01;11.60;;;7.50;;
36253;SDS011;22291;52.250;21.228;2024-03-06T13:11:27;11.85;;;7.90;;
36253;SDS011;22291;52.250;21.228;2024-03-06T13:13:53;13.05;;;7.00;;
36253;SDS011;22291;52.250;21.228;2024-03-06T13:16:20;14.47;;;7.97;;
36253;SDS011;22291;52.250;21.228;2024-03-06T13:18:47;12.98;;;7.90;;
36253;SDS011;22291;52.250;21.228;2024-03-06T13:21:15;11.83;;;8.00;;
36253;SDS011;22291;52.250;21.228;2024-03-06T13:23:41;14.35;;;7.30;;
36253;SDS011;22291;52.250;21.228;2024-03-06T13:26:09;11.53;;;7.80;;
36253;SDS011;22291;52.250;21.228;2024-03-06T13:28:35;13.28;;;7.90;;
36253;SDS011;22291;52.250;21.228;2024-03-06T13:31:01;13.85;;;8.40;;
36253;SDS011;22291;52.250;21.228;2024-03-06T13:33:29;15.00;;;8.28;;
36253;SDS011;22291;52.250;21.228;2024-03-06T13:35:55;12.30;;;7.92;;
36253;SDS011;22291;52.250;21.228;2024-03-06T13:38:21;11.60;;;8.65;;
36253;SDS011;22291;52.250;21.228;2024-03-06T13:40:47;12.53;;;8.58;;
36253;SDS011;22291;52.250;21.228;2024-03-06T13:43:14;16.40;;;9.53;;
36253;SDS011;22291;52.250;21.228;2024-03-06T13:45:52;13.03;;;8.73;;
36253;SDS011;22291;52.250;21.228;2024-03-06T13:48:16;16.77;;;10.28;;
36253;SDS011;22291;52.250;21.228;2024-03-06T13:50:42;17.27;;;10.28;;
36253;SDS011;22291;52.250;21.228;2024-03-06T13:53:10;17.05;;;10.03;;
36253;SDS011;22291;52.250;21.228;2024-03-06T13:55:40;18.17;;;10.80;;
36253;SDS011;22291;52.250;21.228;2024-03-06T14:00:36;16.60;;;10.68;;
36253;SDS011;22291;52.250;21.228;2024-03-06T14:03:04;15.53;;;9.78;;
36253;SDS011;22291;52.250;21.228;2024-03-06T14:05:32;18.27;;;10.08;;
36253;SDS011;22291;52.250;21.228;2024-03-06T14:07:58;16.25;;;10.75;;
36253;SDS011;22291;52.250;21.228;2024-03-06T14:10:25;21.02;;;10.95;;
36253;SDS011;22291;52.250;21.228;2024-03-06T14:12:53;18.45;;;10.95;;
36253;SDS011;22291;52.250;21.228;2024-03-06T14:15:21;16.93;;;10.45;;
36253;SDS011;22291;52.250;21.228;2024-03-06T14:17:49;18.45;;;10.40;;
36253;SDS011;22291;52.250;21.228;2024-03-06T14:20:16;16.90;;;10.93;;
36253;SDS011;22291;52.250;21.228;2024-03-06T14:22:44;19.52;;;10.85;;
36253;SDS011;22291;52.250;21.228;2024-03-06T14:25:11;19.75;;;10.60;;
36253;SDS011;22291;52.250;21.228;2024-03-06T14:27:42;17.23;;;10.55;;